Pagrindinis puslapis
METAR-TAF:

METAR-TAF

Oro uostai :

Taos Regional Airport

Taos, Naujoji Meksika, Jungtinės Amerikos Valstijos

platuma: 36-27N, ilguma: 105-40W, Aukštis: 2161 m

Dabartinis oras

Ataskaita buvo paskelbta 50 minutes, ne 10:56 UTC
Vėjas 3 kt iš Rytų
Temperatūra 11°C
Drėgmė 62%
Slėgis 1031 hPa
Matomumas: 16.1 km
Giedras dangus

METAR: KSKX 291056Z AUTO 08003KT 10SM CLR 11/04 A3044 RMK AO2 SLP242 T01110039

Laikas: 05:46 (11:46 UTC)


TAF: trūkstamas

Orai ataskaitas ir orų prognozės (METAR, TAF).

turimą stotys yra geltonos ir raudonos taškus žemėlapyje.

Perkelti pele per norėdami pamatyti stoties vardą.

Tada spustelėkite, norėdami matyti oro stebėjimo ir prognozės.

Norėdami pakeisti žemėlapį: spustelėkite ant žalios mygtukų su juodo kryžiaus žemyn,; žalią mygtuką su brūkšneliu, jei norite nutolinti; arba žalių rodyklių gretimoms žemėlapius.


METAR-TAF: